sensor_id;sensor_type;location;lat;lon;timestamp;temperature;humidity
14397;DHT22;50653;47.810;13.022;2023-03-23T00:01:02;12.00;78.50
14397;DHT22;50653;47.810;13.022;2023-03-23T00:03:29;12.10;79.00
14397;DHT22;50653;47.810;13.022;2023-03-23T00:05:58;12.10;78.60
14397;DHT22;50653;47.810;13.022;2023-03-23T00:08:31;12.40;78.50
14397;DHT22;50653;47.810;13.022;2023-03-23T00:10:57;12.30;77.80
14397;DHT22;50653;47.810;13.022;2023-03-23T00:13:24;12.20;77.90
14397;DHT22;50653;47.810;13.022;2023-03-23T00:15:51;12.10;77.90
14397;DHT22;50653;47.810;13.022;2023-03-23T00:18:20;12.30;78.20
14397;DHT22;50653;47.810;13.022;2023-03-23T00:20:54;12.40;77.60
14397;DHT22;50653;47.810;13.022;2023-03-23T00:23:23;12.20;77.60
14397;DHT22;50653;47.810;13.022;2023-03-23T00:25:54;12.10;77.90
14397;DHT22;50653;47.810;13.022;2023-03-23T00:28:22;12.30;77.80
14397;DHT22;50653;47.810;13.022;2023-03-23T00:31:01;12.40;78.10
14397;DHT22;50653;47.810;13.022;2023-03-23T00:33:29;12.30;77.70
14397;DHT22;50653;47.810;13.022;2023-03-23T00:35:56;12.50;77.80
14397;DHT22;50653;47.810;13.022;2023-03-23T00:38:23;12.40;77.70
14397;DHT22;50653;47.810;13.022;2023-03-23T00:40:49;12.40;78.30
14397;DHT22;50653;47.810;13.022;2023-03-23T00:43:17;12.30;77.80
14397;DHT22;50653;47.810;13.022;2023-03-23T00:45:43;12.30;78.20
14397;DHT22;50653;47.810;13.022;2023-03-23T00:48:28;12.20;78.30
14397;DHT22;50653;47.810;13.022;2023-03-23T00:50:54;12.20;78.30
14397;DHT22;50653;47.810;13.022;2023-03-23T00:53:20;12.10;78.70
14397;DHT22;50653;47.810;13.022;2023-03-23T00:55:47;12.00;78.70
14397;DHT22;50653;47.810;13.022;2023-03-23T00:58:14;12.00;79.20
14397;DHT22;50653;47.810;13.022;2023-03-23T01:00:41;12.00;79.30
14397;DHT22;50653;47.810;13.022;2023-03-23T01:03:09;11.90;79.10
14397;DHT22;50653;47.810;13.022;2023-03-23T01:05:38;11.90;79.20
14397;DHT22;50653;47.810;13.022;2023-03-23T01:08:05;11.80;79.00
14397;DHT22;50653;47.810;13.022;2023-03-23T01:10:31;11.80;79.00
14397;DHT22;50653;47.810;13.022;2023-03-23T01:13:05;11.90;79.20
14397;DHT22;50653;47.810;13.022;2023-03-23T01:15:31;11.80;79.20
14397;DHT22;50653;47.810;13.022;2023-03-23T01:17:57;11.90;79.50
14397;DHT22;50653;47.810;13.022;2023-03-23T01:20:23;11.70;79.30
14397;DHT22;50653;47.810;13.022;2023-03-23T01:22:50;11.80;79.50
14397;DHT22;50653;47.810;13.022;2023-03-23T01:25:16;11.70;79.20
14397;DHT22;50653;47.810;13.022;2023-03-23T01:27:42;11.70;79.00
14397;DHT22;50653;47.810;13.022;2023-03-23T01:30:11;11.80;79.40
14397;DHT22;50653;47.810;13.022;2023-03-23T01:32:38;11.70;79.10
14397;DHT22;50653;47.810;13.022;2023-03-23T01:35:04;11.90;79.00
14397;DHT22;50653;47.810;13.022;2023-03-23T01:37:30;11.80;78.90
14397;DHT22;50653;47.810;13.022;2023-03-23T01:39:57;11.90;79.10
14397;DHT22;50653;47.810;13.022;2023-03-23T01:42:24;11.70;79.00
14397;DHT22;50653;47.810;13.022;2023-03-23T01:47:21;11.70;79.30
14397;DHT22;50653;47.810;13.022;2023-03-23T01:49:50;11.80;79.60
14397;DHT22;50653;47.810;13.022;2023-03-23T01:52:23;11.70;79.60
14397;DHT22;50653;47.810;13.022;2023-03-23T01:54:56;11.70;79.70
14397;DHT22;50653;47.810;13.022;2023-03-23T01:57:24;11.70;79.70
14397;DHT22;50653;47.810;13.022;2023-03-23T01:59:54;11.60;79.80
14397;DHT22;50653;47.810;13.022;2023-03-23T02:02:27;11.70;80.30
14397;DHT22;50653;47.810;13.022;2023-03-23T02:05:00;11.80;79.80
14397;DHT22;50653;47.810;13.022;2023-03-23T02:07:29;11.70;79.50
14397;DHT22;50653;47.810;13.022;2023-03-23T02:09:58;11.60;79.80
14397;DHT22;50653;47.810;13.022;2023-03-23T02:12:25;11.50;80.10
14397;DHT22;50653;47.810;13.022;2023-03-23T02:14:52;11.60;80.40
14397;DHT22;50653;47.810;13.022;2023-03-23T02:17:41;11.60;80.20
14397;DHT22;50653;47.810;13.022;2023-03-23T02:20:33;11.40;80.30
14397;DHT22;50653;47.810;13.022;2023-03-23T02:23:25;11.30;80.80
14397;DHT22;50653;47.810;13.022;2023-03-23T02:31:44;11.30;80.50
14397;DHT22;50653;47.810;13.022;2023-03-23T02:34:23;11.20;80.90
14397;DHT22;50653;47.810;13.022;2023-03-23T02:37:03;11.20;81.10
14397;DHT22;50653;47.810;13.022;2023-03-23T02:39:33;11.20;80.70
14397;DHT22;50653;47.810;13.022;2023-03-23T02:42:06;11.30;80.80
14397;DHT22;50653;47.810;13.022;2023-03-23T02:44:36;11.40;80.40
14397;DHT22;50653;47.810;13.022;2023-03-23T02:47:06;11.30;80.30
14397;DHT22;50653;47.810;13.022;2023-03-23T02:49:35;11.20;80.60
14397;DHT22;50653;47.810;13.022;2023-03-23T02:52:06;11.20;81.00
14397;DHT22;50653;47.810;13.022;2023-03-23T02:54:33;11.20;80.80
14397;DHT22;50653;47.810;13.022;2023-03-23T02:57:00;11.30;81.00
14397;DHT22;50653;47.810;13.022;2023-03-23T02:59:30;11.20;80.60
14397;DHT22;50653;47.810;13.022;2023-03-23T03:02:01;11.30;80.60
14397;DHT22;50653;47.810;13.022;2023-03-23T03:04:30;11.20;80.80
14397;DHT22;50653;47.810;13.022;2023-03-23T03:10:00;11.30;81.00
14397;DHT22;50653;47.810;13.022;2023-03-23T03:15:04;11.20;80.90
14397;DHT22;50653;47.810;13.022;2023-03-23T03:17:35;11.20;81.00
14397;DHT22;50653;47.810;13.022;2023-03-23T03:20:06;11.20;80.80
14397;DHT22;50653;47.810;13.022;2023-03-23T03:22:39;11.10;81.00
14397;DHT22;50653;47.810;13.022;2023-03-23T03:25:10;11.20;80.90
14397;DHT22;50653;47.810;13.022;2023-03-23T03:27:40;11.20;80.80
14397;DHT22;50653;47.810;13.022;2023-03-23T03:30:14;11.20;80.80
14397;DHT22;50653;47.810;13.022;2023-03-23T03:32:47;11.00;80.70
14397;DHT22;50653;47.810;13.022;2023-03-23T03:35:15;11.20;81.10
14397;DHT22;50653;47.810;13.022;2023-03-23T03:37:41;11.10;81.10
14397;DHT22;50653;47.810;13.022;2023-03-23T03:40:10;11.00;81.10
14397;DHT22;50653;47.810;13.022;2023-03-23T03:42:41;11.00;81.20
14397;DHT22;50653;47.810;13.022;2023-03-23T03:45:09;11.00;81.20
14397;DHT22;50653;47.810;13.022;2023-03-23T03:47:36;10.90;81.40
14397;DHT22;50653;47.810;13.022;2023-03-23T03:50:03;11.00;81.50
14397;DHT22;50653;47.810;13.022;2023-03-23T03:52:28;11.10;81.60
14397;DHT22;50653;47.810;13.022;2023-03-23T03:54:55;11.00;81.90
14397;DHT22;50653;47.810;13.022;2023-03-23T03:57:22;11.10;81.10
14397;DHT22;50653;47.810;13.022;2023-03-23T04:00:06;11.00;81.10
14397;DHT22;50653;47.810;13.022;2023-03-23T04:02:47;11.00;81.30
14397;DHT22;50653;47.810;13.022;2023-03-23T04:05:18;11.00;80.90
14397;DHT22;50653;47.810;13.022;2023-03-23T04:07:47;11.00;81.00
14397;DHT22;50653;47.810;13.022;2023-03-23T04:10:19;11.00;81.30
14397;DHT22;50653;47.810;13.022;2023-03-23T04:12:49;11.10;81.20
14397;DHT22;50653;47.810;13.022;2023-03-23T04:15:18;11.10;81.60
14397;DHT22;50653;47.810;13.022;2023-03-23T04:17:44;11.10;80.70
14397;DHT22;50653;47.810;13.022;2023-03-23T04:20:11;11.10;80.60
14397;DHT22;50653;47.810;13.022;2023-03-23T04:22:47;11.10;80.50
14397;DHT22;50653;47.810;13.022;2023-03-23T04:25:19;11.00;80.60
14397;DHT22;50653;47.810;13.022;2023-03-23T04:27:51;11.00;81.10
14397;DHT22;50653;47.810;13.022;2023-03-23T04:30:28;11.00;81.30
14397;DHT22;50653;47.810;13.022;2023-03-23T04:33:10;11.10;81.20
14397;DHT22;50653;47.810;13.022;2023-03-23T04:35:40;10.90;81.20
14397;DHT22;50653;47.810;13.022;2023-03-23T04:38:16;10.90;81.50
14397;DHT22;50653;47.810;13.022;2023-03-23T04:40:44;10.80;81.60
14397;DHT22;50653;47.810;13.022;2023-03-23T04:43:20;10.80;81.70
14397;DHT22;50653;47.810;13.022;2023-03-23T04:46:09;10.80;81.90
14397;DHT22;50653;47.810;13.022;2023-03-23T04:48:36;10.90;81.70
14397;DHT22;50653;47.810;13.022;2023-03-23T04:51:13;10.90;81.70
14397;DHT22;50653;47.810;13.022;2023-03-23T04:53:40;10.90;81.70
14397;DHT22;50653;47.810;13.022;2023-03-23T04:56:07;10.80;81.80
14397;DHT22;50653;47.810;13.022;2023-03-23T04:58:39;10.80;82.00
14397;DHT22;50653;47.810;13.022;2023-03-23T05:01:16;10.70;82.30
14397;DHT22;50653;47.810;13.022;2023-03-23T05:03:52;10.70;82.40
14397;DHT22;50653;47.810;13.022;2023-03-23T05:06:18;10.80;82.30
14397;DHT22;50653;47.810;13.022;2023-03-23T05:08:44;10.80;82.00
14397;DHT22;50653;47.810;13.022;2023-03-23T05:11:10;10.70;82.10
14397;DHT22;50653;47.810;13.022;2023-03-23T05:13:40;10.70;82.40
14397;DHT22;50653;47.810;13.022;2023-03-23T05:16:07;10.80;82.00
14397;DHT22;50653;47.810;13.022;2023-03-23T05:18:35;10.80;82.10
14397;DHT22;50653;47.810;13.022;2023-03-23T05:21:04;10.80;82.00
14397;DHT22;50653;47.810;13.022;2023-03-23T05:23:34;10.80;82.30
14397;DHT22;50653;47.810;13.022;2023-03-23T05:26:09;10.70;82.40
14397;DHT22;50653;47.810;13.022;2023-03-23T05:28:36;10.70;82.50
14397;DHT22;50653;47.810;13.022;2023-03-23T05:31:20;10.70;82.20
14397;DHT22;50653;47.810;13.022;2023-03-23T05:33:46;10.90;82.30
14397;DHT22;50653;47.810;13.022;2023-03-23T05:36:20;10.90;82.40
14397;DHT22;50653;47.810;13.022;2023-03-23T05:39:13;10.80;82.30
14397;DHT22;50653;47.810;13.022;2023-03-23T05:42:00;10.80;82.40
14397;DHT22;50653;47.810;13.022;2023-03-23T05:44:34;10.70;82.60
14397;DHT22;50653;47.810;13.022;2023-03-23T05:47:00;10.80;82.50
14397;DHT22;50653;47.810;13.022;2023-03-23T05:49:26;10.80;82.50
14397;DHT22;50653;47.810;13.022;2023-03-23T05:51:53;10.70;82.40
14397;DHT22;50653;47.810;13.022;2023-03-23T05:54:19;10.70;82.60
14397;DHT22;50653;47.810;13.022;2023-03-23T05:56:47;10.90;82.60
14397;DHT22;50653;47.810;13.022;2023-03-23T05:59:33;10.90;82.20
14397;DHT22;50653;47.810;13.022;2023-03-23T06:02:00;10.90;82.10
14397;DHT22;50653;47.810;13.022;2023-03-23T06:04:26;10.80;82.30
14397;DHT22;50653;47.810;13.022;2023-03-23T06:07:05;10.90;82.10
14397;DHT22;50653;47.810;13.022;2023-03-23T06:09:31;10.90;82.30
14397;DHT22;50653;47.810;13.022;2023-03-23T06:12:15;10.90;82.20
14397;DHT22;50653;47.810;13.022;2023-03-23T06:14:56;10.90;82.20
14397;DHT22;50653;47.810;13.022;2023-03-23T06:17:30;11.00;82.10
14397;DHT22;50653;47.810;13.022;2023-03-23T06:19:56;11.00;81.70
14397;DHT22;50653;47.810;13.022;2023-03-23T06:22:23;11.00;81.70
14397;DHT22;50653;47.810;13.022;2023-03-23T06:24:55;11.00;81.60
14397;DHT22;50653;47.810;13.022;2023-03-23T06:27:27;11.00;81.60
14397;DHT22;50653;47.810;13.022;2023-03-23T06:29:54;11.10;81.60
14397;DHT22;50653;47.810;13.022;2023-03-23T06:32:23;11.00;81.70
14397;DHT22;50653;47.810;13.022;2023-03-23T06:34:49;11.20;81.40
14397;DHT22;50653;47.810;13.022;2023-03-23T06:37:43;11.10;81.50
14397;DHT22;50653;47.810;13.022;2023-03-23T06:40:17;11.20;81.50
14397;DHT22;50653;47.810;13.022;2023-03-23T06:42:50;11.30;81.40
14397;DHT22;50653;47.810;13.022;2023-03-23T06:45:54;11.20;81.40
14397;DHT22;50653;47.810;13.022;2023-03-23T06:48:48;11.20;81.50
14397;DHT22;50653;47.810;13.022;2023-03-23T06:51:25;11.20;81.60
14397;DHT22;50653;47.810;13.022;2023-03-23T06:53:53;11.30;81.70
14397;DHT22;50653;47.810;13.022;2023-03-23T06:56:24;11.30;81.60
14397;DHT22;50653;47.810;13.022;2023-03-23T06:58:53;11.30;81.50
14397;DHT22;50653;47.810;13.022;2023-03-23T07:01:23;11.30;81.40
14397;DHT22;50653;47.810;13.022;2023-03-23T07:04:00;11.40;81.50
14397;DHT22;50653;47.810;13.022;2023-03-23T07:06:36;11.40;81.50
14397;DHT22;50653;47.810;13.022;2023-03-23T07:09:07;11.40;81.30
14397;DHT22;50653;47.810;13.022;2023-03-23T07:11:35;11.50;81.30
14397;DHT22;50653;47.810;13.022;2023-03-23T07:14:08;11.50;81.20
14397;DHT22;50653;47.810;13.022;2023-03-23T07:16:34;11.50;81.20
14397;DHT22;50653;47.810;13.022;2023-03-23T07:19:00;11.60;81.00
14397;DHT22;50653;47.810;13.022;2023-03-23T07:21:29;11.60;80.90
14397;DHT22;50653;47.810;13.022;2023-03-23T07:23:55;11.70;80.90
14397;DHT22;50653;47.810;13.022;2023-03-23T07:26:49;11.70;80.60
14397;DHT22;50653;47.810;13.022;2023-03-23T07:29:18;11.80;79.90
14397;DHT22;50653;47.810;13.022;2023-03-23T07:31:49;11.90;79.60
14397;DHT22;50653;47.810;13.022;2023-03-23T07:34:26;11.90;79.50
14397;DHT22;50653;47.810;13.022;2023-03-23T07:37:10;12.00;79.70
14397;DHT22;50653;47.810;13.022;2023-03-23T07:39:42;12.00;79.80
14397;DHT22;50653;47.810;13.022;2023-03-23T07:42:15;12.00;80.00
14397;DHT22;50653;47.810;13.022;2023-03-23T07:44:50;12.00;79.90
14397;DHT22;50653;47.810;13.022;2023-03-23T07:47:19;12.10;79.70
14397;DHT22;50653;47.810;13.022;2023-03-23T07:49:51;12.10;79.40
14397;DHT22;50653;47.810;13.022;2023-03-23T07:52:43;12.10;79.30
14397;DHT22;50653;47.810;13.022;2023-03-23T07:55:12;12.10;79.30
14397;DHT22;50653;47.810;13.022;2023-03-23T07:58:11;12.20;79.40
14397;DHT22;50653;47.810;13.022;2023-03-23T08:00:45;12.30;79.30
14397;DHT22;50653;47.810;13.022;2023-03-23T08:03:13;12.30;79.10
14397;DHT22;50653;47.810;13.022;2023-03-23T08:05:56;12.40;79.30
14397;DHT22;50653;47.810;13.022;2023-03-23T08:08:48;12.40;79.30
14397;DHT22;50653;47.810;13.022;2023-03-23T08:11:57;12.50;79.40
14397;DHT22;50653;47.810;13.022;2023-03-23T08:14:46;12.50;79.30
14397;DHT22;50653;47.810;13.022;2023-03-23T08:17:32;12.60;79.40
14397;DHT22;50653;47.810;13.022;2023-03-23T08:20:39;12.60;79.50
14397;DHT22;50653;47.810;13.022;2023-03-23T08:23:27;12.70;79.30
14397;DHT22;50653;47.810;13.022;2023-03-23T08:26:14;12.70;78.70
14397;DHT22;50653;47.810;13.022;2023-03-23T08:29:24;12.80;78.90
14397;DHT22;50653;47.810;13.022;2023-03-23T08:32:07;12.90;78.80
14397;DHT22;50653;47.810;13.022;2023-03-23T08:34:49;12.90;78.80
14397;DHT22;50653;47.810;13.022;2023-03-23T08:37:42;13.00;78.50
14397;DHT22;50653;47.810;13.022;2023-03-23T08:40:26;13.00;78.20
14397;DHT22;50653;47.810;13.022;2023-03-23T08:43:37;13.10;78.60
14397;DHT22;50653;47.810;13.022;2023-03-23T08:47:00;13.10;78.40
14397;DHT22;50653;47.810;13.022;2023-03-23T08:49:51;13.20;78.30
14397;DHT22;50653;47.810;13.022;2023-03-23T08:52:40;13.30;78.50
14397;DHT22;50653;47.810;13.022;2023-03-23T08:55:50;13.30;78.00
14397;DHT22;50653;47.810;13.022;2023-03-23T08:58:37;13.40;77.40
14397;DHT22;50653;47.810;13.022;2023-03-23T09:01:51;13.40;77.20
14397;DHT22;50653;47.810;13.022;2023-03-23T09:04:38;13.40;76.90
14397;DHT22;50653;47.810;13.022;2023-03-23T09:07:41;13.50;77.20
14397;DHT22;50653;47.810;13.022;2023-03-23T09:10:19;13.50;76.60
14397;DHT22;50653;47.810;13.022;2023-03-23T09:12:46;13.70;77.20
14397;DHT22;50653;47.810;13.022;2023-03-23T09:15:15;13.60;76.70
14397;DHT22;50653;47.810;13.022;2023-03-23T09:17:48;13.80;76.70
14397;DHT22;50653;47.810;13.022;2023-03-23T09:20:31;13.90;76.70
14397;DHT22;50653;47.810;13.022;2023-03-23T09:23:13;13.90;76.60
14397;DHT22;50653;47.810;13.022;2023-03-23T09:25:44;14.00;77.00
14397;DHT22;50653;47.810;13.022;2023-03-23T09:28:15;14.10;76.80
14397;DHT22;50653;47.810;13.022;2023-03-23T09:30:54;14.20;76.30
14397;DHT22;50653;47.810;13.022;2023-03-23T09:33:24;14.30;76.00
14397;DHT22;50653;47.810;13.022;2023-03-23T09:36:05;14.30;76.00
14397;DHT22;50653;47.810;13.022;2023-03-23T09:38:35;14.50;76.00
14397;DHT22;50653;47.810;13.022;2023-03-23T09:47:29;14.50;75.30
14397;DHT22;50653;47.810;13.022;2023-03-23T09:50:17;14.60;75.50
14397;DHT22;50653;47.810;13.022;2023-03-23T09:53:10;14.80;75.10
14397;DHT22;50653;47.810;13.022;2023-03-23T09:55:51;14.90;74.90
14397;DHT22;50653;47.810;13.022;2023-03-23T09:58:28;15.00;75.10
14397;DHT22;50653;47.810;13.022;2023-03-23T10:01:15;15.10;74.90
14397;DHT22;50653;47.810;13.022;2023-03-23T10:04:08;15.00;74.50
14397;DHT22;50653;47.810;13.022;2023-03-23T10:06:38;15.20;73.90
14397;DHT22;50653;47.810;13.022;2023-03-23T10:09:14;15.10;73.80
14397;DHT22;50653;47.810;13.022;2023-03-23T10:15:03;15.30;72.80
14397;DHT22;50653;47.810;13.022;2023-03-23T10:17:37;15.40;73.20
14397;DHT22;50653;47.810;13.022;2023-03-23T10:25:45;15.40;73.30
14397;DHT22;50653;47.810;13.022;2023-03-23T10:28:23;15.70;72.70
14397;DHT22;50653;47.810;13.022;2023-03-23T10:30:56;15.80;71.70
14397;DHT22;50653;47.810;13.022;2023-03-23T10:33:45;15.70;71.40
14397;DHT22;50653;47.810;13.022;2023-03-23T10:36:23;15.70;71.90
14397;DHT22;50653;47.810;13.022;2023-03-23T10:41:34;15.70;72.00
14397;DHT22;50653;47.810;13.022;2023-03-23T10:44:03;15.80;72.00
14397;DHT22;50653;47.810;13.022;2023-03-23T10:49:30;16.00;71.10
14397;DHT22;50653;47.810;13.022;2023-03-23T10:54:37;15.90;69.60
14397;DHT22;50653;47.810;13.022;2023-03-23T10:57:24;16.20;68.60
14397;DHT22;50653;47.810;13.022;2023-03-23T11:05:43;16.30;69.20
14397;DHT22;50653;47.810;13.022;2023-03-23T11:08:24;16.20;68.10
14397;DHT22;50653;47.810;13.022;2023-03-23T11:10:58;16.10;69.70
14397;DHT22;50653;47.810;13.022;2023-03-23T11:13:30;16.50;66.40
14397;DHT22;50653;47.810;13.022;2023-03-23T11:16:08;16.60;66.70
14397;DHT22;50653;47.810;13.022;2023-03-23T11:18:42;16.90;66.50
14397;DHT22;50653;47.810;13.022;2023-03-23T11:21:12;16.90;66.00
14397;DHT22;50653;47.810;13.022;2023-03-23T11:23:43;16.80;67.40
14397;DHT22;50653;47.810;13.022;2023-03-23T11:26:26;16.70;66.30
14397;DHT22;50653;47.810;13.022;2023-03-23T11:28:59;16.80;62.10
14397;DHT22;50653;47.810;13.022;2023-03-23T11:31:39;16.80;62.30
14397;DHT22;50653;47.810;13.022;2023-03-23T11:34:15;16.90;65.80
14397;DHT22;50653;47.810;13.022;2023-03-23T11:36:48;16.90;65.70
14397;DHT22;50653;47.810;13.022;2023-03-23T11:39:29;16.70;67.70
14397;DHT22;50653;47.810;13.022;2023-03-23T11:41:57;16.90;65.70
14397;DHT22;50653;47.810;13.022;2023-03-23T11:44:31;16.80;66.60
14397;DHT22;50653;47.810;13.022;2023-03-23T11:57:05;16.90;66.00
14397;DHT22;50653;47.810;13.022;2023-03-23T11:59:35;17.00;63.60
14397;DHT22;50653;47.810;13.022;2023-03-23T12:05:35;16.90;65.90
14397;DHT22;50653;47.810;13.022;2023-03-23T12:08:36;17.00;62.80
14397;DHT22;50653;47.810;13.022;2023-03-23T12:11:23;17.00;64.40
14397;DHT22;50653;47.810;13.022;2023-03-23T12:14:14;17.20;63.20
14397;DHT22;50653;47.810;13.022;2023-03-23T12:17:17;17.10;65.70
14397;DHT22;50653;47.810;13.022;2023-03-23T12:20:13;17.10;66.50
14397;DHT22;50653;47.810;13.022;2023-03-23T12:23:18;17.10;63.70
14397;DHT22;50653;47.810;13.022;2023-03-23T12:26:14;17.20;64.10
14397;DHT22;50653;47.810;13.022;2023-03-23T12:29:05;17.20;64.50
14397;DHT22;50653;47.810;13.022;2023-03-23T12:31:44;17.30;64.90
14397;DHT22;50653;47.810;13.022;2023-03-23T12:46:07;17.50;61.40
14397;DHT22;50653;47.810;13.022;2023-03-23T12:53:16;17.40;59.90
14397;DHT22;50653;47.810;13.022;2023-03-23T12:56:04;17.60;60.10
14397;DHT22;50653;47.810;13.022;2023-03-23T12:58:42;17.50;59.40
14397;DHT22;50653;47.810;13.022;2023-03-23T13:03:56;17.60;60.90
14397;DHT22;50653;47.810;13.022;2023-03-23T13:11:50;18.40;56.60
14397;DHT22;50653;47.810;13.022;2023-03-23T13:14:39;18.30;58.30
14397;DHT22;50653;47.810;13.022;2023-03-23T13:17:36;18.30;57.70
14397;DHT22;50653;47.810;13.022;2023-03-23T13:23:01;18.10;58.80
14397;DHT22;50653;47.810;13.022;2023-03-23T13:33:12;18.30;58.70
14397;DHT22;50653;47.810;13.022;2023-03-23T13:35:41;18.50;57.20
14397;DHT22;50653;47.810;13.022;2023-03-23T13:38:33;18.80;56.50
14397;DHT22;50653;47.810;13.022;2023-03-23T13:41:07;18.90;55.70
14397;DHT22;50653;47.810;13.022;2023-03-23T13:43:34;18.70;56.50
14397;DHT22;50653;47.810;13.022;2023-03-23T13:46:26;18.60;56.40
14397;DHT22;50653;47.810;13.022;2023-03-23T13:51:52;18.60;56.80
14397;DHT22;50653;47.810;13.022;2023-03-23T13:54:29;18.30;58.00
14397;DHT22;50653;47.810;13.022;2023-03-23T13:57:02;18.10;59.30
14397;DHT22;50653;47.810;13.022;2023-03-23T13:59:48;18.50;57.40
14397;DHT22;50653;47.810;13.022;2023-03-23T14:02:38;18.60;56.60
14397;DHT22;50653;47.810;13.022;2023-03-23T14:07:59;18.30;57.80
14397;DHT22;50653;47.810;13.022;2023-03-23T14:10:36;18.20;57.50
14397;DHT22;50653;47.810;13.022;2023-03-23T14:13:09;18.40;56.90
14397;DHT22;50653;47.810;13.022;2023-03-23T14:15:44;18.70;56.00
14397;DHT22;50653;47.810;13.022;2023-03-23T14:18:19;18.60;56.50
14397;DHT22;50653;47.810;13.022;2023-03-23T14:20:47;18.60;56.30
14397;DHT22;50653;47.810;13.022;2023-03-23T14:23:18;18.60;56.20
14397;DHT22;50653;47.810;13.022;2023-03-23T14:25:54;18.50;57.20
14397;DHT22;50653;47.810;13.022;2023-03-23T14:28:21;18.40;56.70
14397;DHT22;50653;47.810;13.022;2023-03-23T14:30:52;18.40;56.30
14397;DHT22;50653;47.810;13.022;2023-03-23T14:33:19;18.30;57.60
14397;DHT22;50653;47.810;13.022;2023-03-23T14:35:45;18.70;54.70
14397;DHT22;50653;47.810;13.022;2023-03-23T14:38:20;19.00;54.30
14397;DHT22;50653;47.810;13.022;2023-03-23T14:40:49;19.10;54.60
14397;DHT22;50653;47.810;13.022;2023-03-23T14:43:21;18.90;54.90
14397;DHT22;50653;47.810;13.022;2023-03-23T14:45:59;18.90;53.70
14397;DHT22;50653;47.810;13.022;2023-03-23T14:48:26;19.00;53.90
14397;DHT22;50653;47.810;13.022;2023-03-23T14:50:58;19.10;53.70
14397;DHT22;50653;47.810;13.022;2023-03-23T14:53:31;19.10;54.10
14397;DHT22;50653;47.810;13.022;2023-03-23T14:56:01;18.90;55.40
14397;DHT22;50653;47.810;13.022;2023-03-23T14:58:29;19.10;53.60
14397;DHT22;50653;47.810;13.022;2023-03-23T15:00:59;18.90;55.50
14397;DHT22;50653;47.810;13.022;2023-03-23T15:03:28;19.10;54.40
14397;DHT22;50653;47.810;13.022;2023-03-23T15:06:01;18.90;55.30
14397;DHT22;50653;47.810;13.022;2023-03-23T15:08:30;19.00;54.40
14397;DHT22;50653;47.810;13.022;2023-03-23T15:11:08;18.50;55.00
14397;DHT22;50653;47.810;13.022;2023-03-23T15:13:41;18.40;55.30
14397;DHT22;50653;47.810;13.022;2023-03-23T15:16:29;18.40;55.50
14397;DHT22;50653;47.810;13.022;2023-03-23T15:19:04;18.80;54.20
14397;DHT22;50653;47.810;13.022;2023-03-23T15:23:59;19.00;53.50
14397;DHT22;50653;47.810;13.022;2023-03-23T15:26:34;19.00;53.40
14397;DHT22;50653;47.810;13.022;2023-03-23T15:31:43;19.00;53.90
14397;DHT22;50653;47.810;13.022;2023-03-23T15:34:18;18.80;54.60
14397;DHT22;50653;47.810;13.022;2023-03-23T15:36:45;18.80;55.50
14397;DHT22;50653;47.810;13.022;2023-03-23T15:39:12;18.90;54.20
14397;DHT22;50653;47.810;13.022;2023-03-23T15:41:47;18.90;54.40
14397;DHT22;50653;47.810;13.022;2023-03-23T15:44:33;18.90;54.40
14397;DHT22;50653;47.810;13.022;2023-03-23T15:47:18;18.90;54.40
14397;DHT22;50653;47.810;13.022;2023-03-23T15:49:46;18.80;55.10
14397;DHT22;50653;47.810;13.022;2023-03-23T15:52:14;18.70;55.20
14397;DHT22;50653;47.810;13.022;2023-03-23T15:54:47;18.70;55.80
14397;DHT22;50653;47.810;13.022;2023-03-23T15:57:13;18.70;55.70
14397;DHT22;50653;47.810;13.022;2023-03-23T15:59:39;18.60;56.00
14397;DHT22;50653;47.810;13.022;2023-03-23T16:02:04;18.60;56.10
14397;DHT22;50653;47.810;13.022;2023-03-23T16:04:30;18.50;56.60
14397;DHT22;50653;47.810;13.022;2023-03-23T16:06:58;18.60;56.50
14397;DHT22;50653;47.810;13.022;2023-03-23T16:09:25;18.50;56.70
14397;DHT22;50653;47.810;13.022;2023-03-23T16:11:50;18.50;56.80
14397;DHT22;50653;47.810;13.022;2023-03-23T16:14:16;18.50;57.00
14397;DHT22;50653;47.810;13.022;2023-03-23T16:16:47;18.40;57.20
14397;DHT22;50653;47.810;13.022;2023-03-23T16:19:15;18.50;57.50
14397;DHT22;50653;47.810;13.022;2023-03-23T16:21:41;18.40;57.10
14397;DHT22;50653;47.810;13.022;2023-03-23T16:24:08;18.40;57.40
14397;DHT22;50653;47.810;13.022;2023-03-23T16:26:34;18.30;57.70
14397;DHT22;50653;47.810;13.022;2023-03-23T16:29:00;18.30;57.60
14397;DHT22;50653;47.810;13.022;2023-03-23T16:31:27;18.30;57.80
14397;DHT22;50653;47.810;13.022;2023-03-23T16:33:54;18.30;57.90
14397;DHT22;50653;47.810;13.022;2023-03-23T16:36:20;18.30;57.80
14397;DHT22;50653;47.810;13.022;2023-03-23T16:38:45;18.30;57.70
14397;DHT22;50653;47.810;13.022;2023-03-23T16:41:11;18.20;57.80
14397;DHT22;50653;47.810;13.022;2023-03-23T16:43:37;18.20;57.70
14397;DHT22;50653;47.810;13.022;2023-03-23T16:46:03;18.20;58.10
14397;DHT22;50653;47.810;13.022;2023-03-23T16:48:29;18.10;58.00
14397;DHT22;50653;47.810;13.022;2023-03-23T16:50:55;18.10;57.80
14397;DHT22;50653;47.810;13.022;2023-03-23T16:53:21;18.10;58.10
14397;DHT22;50653;47.810;13.022;2023-03-23T16:55:47;18.00;58.10
14397;DHT22;50653;47.810;13.022;2023-03-23T16:58:15;18.10;58.10
14397;DHT22;50653;47.810;13.022;2023-03-23T17:00:43;17.90;58.50
14397;DHT22;50653;47.810;13.022;2023-03-23T17:03:09;18.00;58.40
14397;DHT22;50653;47.810;13.022;2023-03-23T17:05:36;17.90;58.70
14397;DHT22;50653;47.810;13.022;2023-03-23T17:08:02;17.90;58.80
14397;DHT22;50653;47.810;13.022;2023-03-23T17:10:29;17.90;59.00
14397;DHT22;50653;47.810;13.022;2023-03-23T17:12:55;17.80;59.10
14397;DHT22;50653;47.810;13.022;2023-03-23T17:15:22;17.80;58.80
14397;DHT22;50653;47.810;13.022;2023-03-23T17:17:50;17.70;59.00
14397;DHT22;50653;47.810;13.022;2023-03-23T17:20:17;17.70;59.00
14397;DHT22;50653;47.810;13.022;2023-03-23T17:22:43;17.70;58.80
14397;DHT22;50653;47.810;13.022;2023-03-23T17:25:09;17.70;59.00
14397;DHT22;50653;47.810;13.022;2023-03-23T17:27:35;17.70;59.00
14397;DHT22;50653;47.810;13.022;2023-03-23T17:30:03;17.60;59.10
14397;DHT22;50653;47.810;13.022;2023-03-23T17:32:29;17.60;59.20
14397;DHT22;50653;47.810;13.022;2023-03-23T17:34:55;17.60;59.40
14397;DHT22;50653;47.810;13.022;2023-03-23T17:37:20;17.50;59.30
14397;DHT22;50653;47.810;13.022;2023-03-23T17:39:47;17.50;59.40